sensor_id;sensor_type;location;lat;lon;timestamp;pressure;altitude;pressure_sealevel;temperature;humidity
76311;BME280;65120;59.304;18.294;2023-12-07T00:01:45;102682.50;;;-6.35;71.96
76311;BME280;65120;59.304;18.294;2023-12-07T00:04:12;102683.53;;;-6.33;72.49
76311;BME280;65120;59.304;18.294;2023-12-07T00:06:39;102673.34;;;-6.33;72.53
76311;BME280;65120;59.304;18.294;2023-12-07T00:09:06;102681.22;;;-6.30;72.53
76311;BME280;65120;59.304;18.294;2023-12-07T00:11:34;102676.13;;;-6.30;72.41
76311;BME280;65120;59.304;18.294;2023-12-07T00:14:01;102684.13;;;-6.26;72.42
76311;BME280;65120;59.304;18.294;2023-12-07T00:16:28;102680.03;;;-6.24;72.54
76311;BME280;65120;59.304;18.294;2023-12-07T00:18:55;102673.38;;;-6.22;72.27
76311;BME280;65120;59.304;18.294;2023-12-07T00:21:22;102676.06;;;-6.20;72.40
76311;BME280;65120;59.304;18.294;2023-12-07T00:23:49;102668.50;;;-6.18;72.55
76311;BME280;65120;59.304;18.294;2023-12-07T00:26:16;102683.16;;;-6.16;72.57
76311;BME280;65120;59.304;18.294;2023-12-07T00:28:44;102673.97;;;-6.14;72.37
76311;BME280;65120;59.304;18.294;2023-12-07T00:31:11;102666.41;;;-6.12;72.83
76311;BME280;65120;59.304;18.294;2023-12-07T00:33:38;102673.31;;;-6.11;72.51
76311;BME280;65120;59.304;18.294;2023-12-07T00:36:06;102671.00;;;-6.08;72.38
76311;BME280;65120;59.304;18.294;2023-12-07T00:38:34;102677.84;;;-6.07;72.62
76311;BME280;65120;59.304;18.294;2023-12-07T00:41:01;102669.47;;;-6.06;72.28
76311;BME280;65120;59.304;18.294;2023-12-07T00:43:28;102672.22;;;-6.03;72.32
76311;BME280;65120;59.304;18.294;2023-12-07T00:45:56;102674.13;;;-6.01;72.63
76311;BME280;65120;59.304;18.294;2023-12-07T00:48:24;102669.13;;;-5.99;72.65
76311;BME280;65120;59.304;18.294;2023-12-07T00:50:51;102669.25;;;-5.98;72.48
76311;BME280;65120;59.304;18.294;2023-12-07T00:53:18;102663.50;;;-5.95;72.63
76311;BME280;65120;59.304;18.294;2023-12-07T00:55:45;102669.47;;;-5.94;72.38
76311;BME280;65120;59.304;18.294;2023-12-07T00:58:12;102660.81;;;-5.97;72.51
76311;BME280;65120;59.304;18.294;2023-12-07T01:00:39;102666.38;;;-5.90;72.78
76311;BME280;65120;59.304;18.294;2023-12-07T01:03:07;102670.81;;;-5.88;72.82
76311;BME280;65120;59.304;18.294;2023-12-07T01:05:34;102668.41;;;-5.86;72.92
76311;BME280;65120;59.304;18.294;2023-12-07T01:08:01;102666.81;;;-5.84;72.63
76311;BME280;65120;59.304;18.294;2023-12-07T01:10:28;102666.16;;;-5.82;73.28
76311;BME280;65120;59.304;18.294;2023-12-07T01:12:55;102662.88;;;-5.81;72.83
76311;BME280;65120;59.304;18.294;2023-12-07T01:15:22;102660.31;;;-5.81;72.38
76311;BME280;65120;59.304;18.294;2023-12-07T01:17:49;102661.94;;;-5.81;72.72
76311;BME280;65120;59.304;18.294;2023-12-07T01:20:17;102668.41;;;-5.75;72.62
76311;BME280;65120;59.304;18.294;2023-12-07T01:22:45;102675.28;;;-5.73;72.87
76311;BME280;65120;59.304;18.294;2023-12-07T01:25:12;102678.03;;;-5.70;72.86
76311;BME280;65120;59.304;18.294;2023-12-07T01:27:45;102671.41;;;-5.68;72.92
76311;BME280;65120;59.304;18.294;2023-12-07T01:30:12;102662.97;;;-5.67;72.87
76311;BME280;65120;59.304;18.294;2023-12-07T01:32:39;102663.09;;;-5.66;72.95
76311;BME280;65120;59.304;18.294;2023-12-07T01:35:07;102670.84;;;-5.64;73.00
76311;BME280;65120;59.304;18.294;2023-12-07T01:37:35;102664.19;;;-5.62;72.91
76311;BME280;65120;59.304;18.294;2023-12-07T01:40:03;102670.19;;;-5.62;73.32
76311;BME280;65120;59.304;18.294;2023-12-07T01:42:35;102672.06;;;-5.59;73.10
76311;BME280;65120;59.304;18.294;2023-12-07T01:45:03;102669.53;;;-5.59;73.21
76311;BME280;65120;59.304;18.294;2023-12-07T01:47:31;102673.88;;;-5.58;73.45
76311;BME280;65120;59.304;18.294;2023-12-07T01:49:59;102677.41;;;-5.56;73.29
76311;BME280;65120;59.304;18.294;2023-12-07T01:52:27;102674.19;;;-5.54;73.45
76311;BME280;65120;59.304;18.294;2023-12-07T01:54:57;102679.41;;;-5.52;73.45
76311;BME280;65120;59.304;18.294;2023-12-07T01:57:24;102675.28;;;-5.50;73.56
76311;BME280;65120;59.304;18.294;2023-12-07T01:59:51;102673.75;;;-5.48;73.34
76311;BME280;65120;59.304;18.294;2023-12-07T02:02:18;102677.09;;;-5.49;73.29
76311;BME280;65120;59.304;18.294;2023-12-07T02:04:45;102678.19;;;-5.45;73.50
76311;BME280;65120;59.304;18.294;2023-12-07T02:07:12;102681.84;;;-5.42;73.31
76311;BME280;65120;59.304;18.294;2023-12-07T02:09:39;102680.19;;;-5.41;73.33
76311;BME280;65120;59.304;18.294;2023-12-07T02:12:08;102682.06;;;-5.39;73.31
76311;BME280;65120;59.304;18.294;2023-12-07T02:14:35;102685.53;;;-5.38;73.43
76311;BME280;65120;59.304;18.294;2023-12-07T02:17:08;102680.53;;;-5.37;73.16
76311;BME280;65120;59.304;18.294;2023-12-07T02:19:52;102681.53;;;-5.35;73.06
76311;BME280;65120;59.304;18.294;2023-12-07T02:22:25;102675.53;;;-5.35;73.25
76311;BME280;65120;59.304;18.294;2023-12-07T02:25:04;102679.06;;;-5.33;73.24
76311;BME280;65120;59.304;18.294;2023-12-07T02:27:35;102679.94;;;-5.33;72.94
76311;BME280;65120;59.304;18.294;2023-12-07T02:30:03;102681.75;;;-5.32;73.10
76311;BME280;65120;59.304;18.294;2023-12-07T02:32:30;102676.66;;;-5.32;73.08
76311;BME280;65120;59.304;18.294;2023-12-07T02:34:57;102673.97;;;-5.33;73.35
76311;BME280;65120;59.304;18.294;2023-12-07T02:37:27;102678.41;;;-5.31;73.37
76311;BME280;65120;59.304;18.294;2023-12-07T02:39:56;102676.66;;;-5.32;72.67
76311;BME280;65120;59.304;18.294;2023-12-07T02:42:24;102672.28;;;-5.33;73.11
76311;BME280;65120;59.304;18.294;2023-12-07T02:44:54;102677.41;;;-5.33;73.01
76311;BME280;65120;59.304;18.294;2023-12-07T02:47:21;102672.44;;;-5.31;73.00
76311;BME280;65120;59.304;18.294;2023-12-07T02:49:48;102676.75;;;-5.30;72.98
76311;BME280;65120;59.304;18.294;2023-12-07T02:52:15;102675.97;;;-5.29;72.89
76311;BME280;65120;59.304;18.294;2023-12-07T02:54:42;102675.09;;;-5.30;72.94
76311;BME280;65120;59.304;18.294;2023-12-07T02:57:09;102675.09;;;-5.30;72.99
76311;BME280;65120;59.304;18.294;2023-12-07T02:59:36;102673.44;;;-5.29;72.52
76311;BME280;65120;59.304;18.294;2023-12-07T03:02:05;102667.44;;;-5.30;72.69
76311;BME280;65120;59.304;18.294;2023-12-07T03:04:32;102670.75;;;-5.31;73.10
76311;BME280;65120;59.304;18.294;2023-12-07T03:06:59;102660.56;;;-5.31;73.05
76311;BME280;65120;59.304;18.294;2023-12-07T03:09:26;102664.78;;;-5.31;72.71
76311;BME280;65120;59.304;18.294;2023-12-07T03:11:52;102663.88;;;-5.32;72.91
76311;BME280;65120;59.304;18.294;2023-12-07T03:14:19;102647.34;;;-5.37;72.61
76311;BME280;65120;59.304;18.294;2023-12-07T03:16:46;102655.22;;;-5.34;72.55
76311;BME280;65120;59.304;18.294;2023-12-07T03:19:15;102655.22;;;-5.34;72.48
76311;BME280;65120;59.304;18.294;2023-12-07T03:21:42;102655.00;;;-5.37;72.33
76311;BME280;65120;59.304;18.294;2023-12-07T03:24:09;102649.13;;;-5.36;72.19
76311;BME280;65120;59.304;18.294;2023-12-07T03:26:37;102651.59;;;-5.37;72.42
76311;BME280;65120;59.304;18.294;2023-12-07T03:29:04;102647.13;;;-5.40;72.42
76311;BME280;65120;59.304;18.294;2023-12-07T03:31:31;102654.00;;;-5.39;72.25
76311;BME280;65120;59.304;18.294;2023-12-07T03:33:58;102658.13;;;-5.41;72.43
76311;BME280;65120;59.304;18.294;2023-12-07T03:36:27;102655.56;;;-5.41;72.49
76311;BME280;65120;59.304;18.294;2023-12-07T03:38:54;102656.25;;;-5.43;72.53
76311;BME280;65120;59.304;18.294;2023-12-07T03:41:21;102659.53;;;-5.44;72.37
76311;BME280;65120;59.304;18.294;2023-12-07T03:43:48;102655.81;;;-5.49;71.72
76311;BME280;65120;59.304;18.294;2023-12-07T03:46:16;102661.00;;;-5.48;72.26
76311;BME280;65120;59.304;18.294;2023-12-07T03:48:43;102661.78;;;-5.49;72.29
76311;BME280;65120;59.304;18.294;2023-12-07T03:51:12;102665.88;;;-5.51;72.20
76311;BME280;65120;59.304;18.294;2023-12-07T03:53:43;102669.22;;;-5.52;72.40
76311;BME280;65120;59.304;18.294;2023-12-07T03:56:10;102663.91;;;-5.55;72.09
76311;BME280;65120;59.304;18.294;2023-12-07T03:58:37;102667.97;;;-5.57;72.16
76311;BME280;65120;59.304;18.294;2023-12-07T04:01:04;102666.22;;;-5.58;72.11
76311;BME280;65120;59.304;18.294;2023-12-07T04:03:32;102668.66;;;-5.60;72.25
76311;BME280;65120;59.304;18.294;2023-12-07T04:05:59;102668.50;;;-5.61;72.21
76311;BME280;65120;59.304;18.294;2023-12-07T04:08:25;102669.97;;;-5.65;72.00
76311;BME280;65120;59.304;18.294;2023-12-07T04:10:54;102663.19;;;-5.64;72.25
76311;BME280;65120;59.304;18.294;2023-12-07T04:13:21;102669.09;;;-5.65;71.99
76311;BME280;65120;59.304;18.294;2023-12-07T04:15:48;102662.97;;;-5.67;72.08
76311;BME280;65120;59.304;18.294;2023-12-07T04:18:15;102672.19;;;-5.69;71.89
76311;BME280;65120;59.304;18.294;2023-12-07T04:20:42;102668.50;;;-5.73;71.75
76311;BME280;65120;59.304;18.294;2023-12-07T04:23:09;102670.97;;;-5.75;71.91
76311;BME280;65120;59.304;18.294;2023-12-07T04:25:36;102664.84;;;-5.77;72.00
76311;BME280;65120;59.304;18.294;2023-12-07T04:28:04;102665.63;;;-5.78;72.03
76311;BME280;65120;59.304;18.294;2023-12-07T04:30:31;102667.28;;;-5.78;71.82
76311;BME280;65120;59.304;18.294;2023-12-07T04:32:58;102655.97;;;-5.82;72.30
76311;BME280;65120;59.304;18.294;2023-12-07T04:35:25;102662.88;;;-5.81;72.11
76311;BME280;65120;59.304;18.294;2023-12-07T04:37:54;102647.34;;;-5.84;71.99
76311;BME280;65120;59.304;18.294;2023-12-07T04:40:20;102662.06;;;-5.80;72.08
76311;BME280;65120;59.304;18.294;2023-12-07T04:42:47;102664.63;;;-5.80;72.11
76311;BME280;65120;59.304;18.294;2023-12-07T04:45:16;102670.59;;;-5.79;72.19
76311;BME280;65120;59.304;18.294;2023-12-07T04:47:43;102671.50;;;-5.79;72.15
76311;BME280;65120;59.304;18.294;2023-12-07T04:50:10;102679.13;;;-5.79;72.58
76311;BME280;65120;59.304;18.294;2023-12-07T04:52:37;102674.16;;;-5.77;72.17
76311;BME280;65120;59.304;18.294;2023-12-07T04:55:04;102674.03;;;-5.79;72.46
76311;BME280;65120;59.304;18.294;2023-12-07T04:57:31;102671.72;;;-5.76;72.42
76311;BME280;65120;59.304;18.294;2023-12-07T04:59:58;102673.50;;;-5.75;72.63
76311;BME280;65120;59.304;18.294;2023-12-07T05:02:27;102668.41;;;-5.75;72.61
76311;BME280;65120;59.304;18.294;2023-12-07T05:04:54;102665.97;;;-5.73;72.19
76311;BME280;65120;59.304;18.294;2023-12-07T05:07:21;102659.31;;;-5.71;72.72
76311;BME280;65120;59.304;18.294;2023-12-07T05:09:49;102667.84;;;-5.70;72.30
76311;BME280;65120;59.304;18.294;2023-12-07T05:12:16;102662.88;;;-5.69;72.71
76311;BME280;65120;59.304;18.294;2023-12-07T05:14:43;102666.41;;;-5.67;72.74
76311;BME280;65120;59.304;18.294;2023-12-07T05:17:10;102663.97;;;-5.65;72.82
76311;BME280;65120;59.304;18.294;2023-12-07T05:19:37;102665.75;;;-5.64;72.57
76311;BME280;65120;59.304;18.294;2023-12-07T05:22:04;102668.44;;;-5.63;72.91
76311;BME280;65120;59.304;18.294;2023-12-07T05:24:31;102665.97;;;-5.61;72.87
76311;BME280;65120;59.304;18.294;2023-12-07T05:27:00;102670.31;;;-5.60;72.78
76311;BME280;65120;59.304;18.294;2023-12-07T05:29:27;102667.84;;;-5.59;72.76
76311;BME280;65120;59.304;18.294;2023-12-07T05:31:53;102673.09;;;-5.57;72.89
76311;BME280;65120;59.304;18.294;2023-12-07T05:34:20;102671.53;;;-5.55;72.81
76311;BME280;65120;59.304;18.294;2023-12-07T05:36:49;102668.22;;;-5.54;72.82
76311;BME280;65120;59.304;18.294;2023-12-07T05:39:16;102666.66;;;-5.52;73.13
76311;BME280;65120;59.304;18.294;2023-12-07T05:41:44;102667.63;;;-5.50;73.00
76311;BME280;65120;59.304;18.294;2023-12-07T05:44:12;102673.53;;;-5.51;73.02
76311;BME280;65120;59.304;18.294;2023-12-07T05:46:39;102670.41;;;-5.47;72.85
76311;BME280;65120;59.304;18.294;2023-12-07T05:49:09;102667.09;;;-5.46;73.00
76311;BME280;65120;59.304;18.294;2023-12-07T05:51:36;102669.88;;;-5.43;73.10
76311;BME280;65120;59.304;18.294;2023-12-07T05:54:05;102659.69;;;-5.43;73.07
76311;BME280;65120;59.304;18.294;2023-12-07T05:56:32;102659.91;;;-5.40;72.99
76311;BME280;65120;59.304;18.294;2023-12-07T05:58:59;102657.47;;;-5.38;73.12
76311;BME280;65120;59.304;18.294;2023-12-07T06:01:26;102655.81;;;-5.38;73.16
76311;BME280;65120;59.304;18.294;2023-12-07T06:03:53;102654.22;;;-5.36;73.10
76311;BME280;65120;59.304;18.294;2023-12-07T06:06:20;102653.56;;;-5.33;73.34
76311;BME280;65120;59.304;18.294;2023-12-07T06:08:47;102652.81;;;-5.32;73.23
76311;BME280;65120;59.304;18.294;2023-12-07T06:11:15;102647.13;;;-5.28;73.36
76311;BME280;65120;59.304;18.294;2023-12-07T06:13:42;102646.25;;;-5.28;73.08
76311;BME280;65120;59.304;18.294;2023-12-07T06:16:12;102650.69;;;-5.26;73.51
76311;BME280;65120;59.304;18.294;2023-12-07T06:18:40;102660.22;;;-5.23;73.72
76311;BME280;65120;59.304;18.294;2023-12-07T06:21:07;102644.91;;;-5.23;73.52
76311;BME280;65120;59.304;18.294;2023-12-07T06:23:34;102655.34;;;-5.20;73.09
76311;BME280;65120;59.304;18.294;2023-12-07T06:26:02;102655.56;;;-5.17;73.58
76311;BME280;65120;59.304;18.294;2023-12-07T06:28:32;102654.00;;;-5.15;73.71
76311;BME280;65120;59.304;18.294;2023-12-07T06:31:05;102657.31;;;-5.16;73.66
76311;BME280;65120;59.304;18.294;2023-12-07T06:33:32;102659.34;;;-5.12;73.58
76311;BME280;65120;59.304;18.294;2023-12-07T06:36:00;102656.13;;;-5.10;73.57
76311;BME280;65120;59.304;18.294;2023-12-07T06:38:27;102658.09;;;-5.05;73.60
76311;BME280;65120;59.304;18.294;2023-12-07T06:40:54;102652.09;;;-5.06;73.93
76311;BME280;65120;59.304;18.294;2023-12-07T06:43:21;102654.00;;;-5.03;73.67
76311;BME280;65120;59.304;18.294;2023-12-07T06:45:50;102656.63;;;-5.02;73.58
76311;BME280;65120;59.304;18.294;2023-12-07T06:48:17;102656.84;;;-4.99;73.78
76311;BME280;65120;59.304;18.294;2023-12-07T06:50:44;102663.75;;;-4.98;73.63
76311;BME280;65120;59.304;18.294;2023-12-07T06:53:11;102659.63;;;-4.96;73.79
76311;BME280;65120;59.304;18.294;2023-12-07T06:55:38;102660.63;;;-4.94;73.85
76311;BME280;65120;59.304;18.294;2023-12-07T06:58:07;102661.63;;;-4.92;73.71
76311;BME280;65120;59.304;18.294;2023-12-07T07:00:35;102665.94;;;-4.91;73.82
76311;BME280;65120;59.304;18.294;2023-12-07T07:03:04;102663.38;;;-4.91;73.87
76311;BME280;65120;59.304;18.294;2023-12-07T07:05:31;102667.03;;;-4.87;73.65
76311;BME280;65120;59.304;18.294;2023-12-07T07:07:58;102671.47;;;-4.85;73.79
76311;BME280;65120;59.304;18.294;2023-12-07T07:10:25;102669.94;;;-4.82;73.82
76311;BME280;65120;59.304;18.294;2023-12-07T07:12:52;102669.13;;;-4.81;73.67
76311;BME280;65120;59.304;18.294;2023-12-07T07:15:19;102660.72;;;-4.80;73.46
76311;BME280;65120;59.304;18.294;2023-12-07T07:17:46;102660.81;;;-4.79;74.12
76311;BME280;65120;59.304;18.294;2023-12-07T07:20:15;102655.03;;;-4.76;73.83
76311;BME280;65120;59.304;18.294;2023-12-07T07:22:42;102652.59;;;-4.75;73.71
76311;BME280;65120;59.304;18.294;2023-12-07T07:25:09;102648.16;;;-4.77;74.26
76311;BME280;65120;59.304;18.294;2023-12-07T07:27:36;102642.16;;;-4.78;73.99
76311;BME280;65120;59.304;18.294;2023-12-07T07:30:04;102654.69;;;-4.69;73.96
76311;BME280;65120;59.304;18.294;2023-12-07T07:32:31;102643.47;;;-4.71;73.91
76311;BME280;65120;59.304;18.294;2023-12-07T07:34:58;102653.03;;;-4.69;73.96
76311;BME280;65120;59.304;18.294;2023-12-07T07:37:27;102655.13;;;-4.63;74.15
76311;BME280;65120;59.304;18.294;2023-12-07T07:39:53;102645.91;;;-4.61;74.11
76311;BME280;65120;59.304;18.294;2023-12-07T07:42:20;102652.78;;;-4.60;74.41
76311;BME280;65120;59.304;18.294;2023-12-07T07:44:47;102658.09;;;-4.57;74.24
76311;BME280;65120;59.304;18.294;2023-12-07T07:47:14;102654.75;;;-4.56;74.12
76311;BME280;65120;59.304;18.294;2023-12-07T07:49:41;102657.53;;;-4.53;74.73
76311;BME280;65120;59.304;18.294;2023-12-07T07:52:08;102652.50;;;-4.51;74.45
76311;BME280;65120;59.304;18.294;2023-12-07T07:54:37;102660.28;;;-4.50;74.39
76311;BME280;65120;59.304;18.294;2023-12-07T07:57:04;102655.28;;;-4.48;74.64
76311;BME280;65120;59.304;18.294;2023-12-07T07:59:31;102658.91;;;-4.45;75.04
76311;BME280;65120;59.304;18.294;2023-12-07T08:01:58;102670.25;;;-4.41;74.61
76311;BME280;65120;59.304;18.294;2023-12-07T08:04:25;102670.25;;;-4.41;74.63
76311;BME280;65120;59.304;18.294;2023-12-07T08:06:52;102668.78;;;-4.37;74.62
76311;BME280;65120;59.304;18.294;2023-12-07T08:09:19;102670.69;;;-4.35;75.15
76311;BME280;65120;59.304;18.294;2023-12-07T08:11:47;102668.22;;;-4.33;74.56
76311;BME280;65120;59.304;18.294;2023-12-07T08:14:14;102660.75;;;-4.30;74.94
76311;BME280;65120;59.304;18.294;2023-12-07T08:16:44;102660.06;;;-4.28;74.99
76311;BME280;65120;59.304;18.294;2023-12-07T08:19:12;102651.66;;;-4.27;75.14
76311;BME280;65120;59.304;18.294;2023-12-07T08:21:39;102655.28;;;-4.23;74.93
76311;BME280;65120;59.304;18.294;2023-12-07T08:24:06;102648.63;;;-4.21;74.84
76311;BME280;65120;59.304;18.294;2023-12-07T08:26:33;102646.06;;;-4.21;74.73
76311;BME280;65120;59.304;18.294;2023-12-07T08:29:02;102652.34;;;-4.16;75.10
76311;BME280;65120;59.304;18.294;2023-12-07T08:31:29;102649.09;;;-4.13;74.93
76311;BME280;65120;59.304;18.294;2023-12-07T08:33:56;102651.00;;;-4.11;75.44
76311;BME280;65120;59.304;18.294;2023-12-07T08:36:23;102643.44;;;-4.09;75.11
76311;BME280;65120;59.304;18.294;2023-12-07T08:38:51;102647.88;;;-4.07;75.56
76311;BME280;65120;59.304;18.294;2023-12-07T08:41:17;102643.72;;;-4.05;75.49
76311;BME280;65120;59.304;18.294;2023-12-07T08:43:44;102641.38;;;-4.02;75.08
76311;BME280;65120;59.304;18.294;2023-12-07T08:46:13;102643.25;;;-3.99;75.32
76311;BME280;65120;59.304;18.294;2023-12-07T08:48:40;102650.25;;;-3.97;74.95
76311;BME280;65120;59.304;18.294;2023-12-07T08:51:07;102653.00;;;-3.94;75.73
76311;BME280;65120;59.304;18.294;2023-12-07T08:53:34;102650.44;;;-3.94;75.28
76311;BME280;65120;59.304;18.294;2023-12-07T08:56:02;102650.63;;;-3.90;75.50
76311;BME280;65120;59.304;18.294;2023-12-07T08:58:29;102645.75;;;-3.87;75.65
76311;BME280;65120;59.304;18.294;2023-12-07T09:00:56;102645.06;;;-3.85;75.84
76311;BME280;65120;59.304;18.294;2023-12-07T09:03:24;102652.03;;;-3.82;76.00
76311;BME280;65120;59.304;18.294;2023-12-07T09:05:57;102650.47;;;-3.80;75.81
76311;BME280;65120;59.304;18.294;2023-12-07T09:08:24;102650.59;;;-3.79;75.46
76311;BME280;65120;59.304;18.294;2023-12-07T09:10:51;102649.00;;;-3.77;76.04
76311;BME280;65120;59.304;18.294;2023-12-07T09:13:18;102648.31;;;-3.74;75.62
76311;BME280;65120;59.304;18.294;2023-12-07T09:15:45;102647.63;;;-3.72;75.67
76311;BME280;65120;59.304;18.294;2023-12-07T09:18:12;102650.41;;;-3.68;75.94
76311;BME280;65120;59.304;18.294;2023-12-07T09:20:40;102655.63;;;-3.67;75.81
76311;BME280;65120;59.304;18.294;2023-12-07T09:23:11;102654.03;;;-3.65;76.16
76311;BME280;65120;59.304;18.294;2023-12-07T09:25:39;102650.78;;;-3.62;75.95
76311;BME280;65120;59.304;18.294;2023-12-07T09:28:06;102649.16;;;-3.62;75.45
76311;BME280;65120;59.304;18.294;2023-12-07T09:30:33;102646.78;;;-3.59;75.58
76311;BME280;65120;59.304;18.294;2023-12-07T09:33:01;102644.41;;;-3.56;75.73
76311;BME280;65120;59.304;18.294;2023-12-07T09:35:29;102647.94;;;-3.54;75.61
76311;BME280;65120;59.304;18.294;2023-12-07T09:37:57;102643.81;;;-3.52;76.07
76311;BME280;65120;59.304;18.294;2023-12-07T09:40:24;102637.91;;;-3.51;75.60
76311;BME280;65120;59.304;18.294;2023-12-07T09:42:53;102639.00;;;-3.47;76.21
76311;BME280;65120;59.304;18.294;2023-12-07T09:45:20;102642.66;;;-3.43;75.78
76311;BME280;65120;59.304;18.294;2023-12-07T09:47:49;102639.09;;;-3.45;76.50
76311;BME280;65120;59.304;18.294;2023-12-07T09:50:18;102641.06;;;-3.41;76.32
76311;BME280;65120;59.304;18.294;2023-12-07T09:52:47;102644.72;;;-3.38;76.07
76311;BME280;65120;59.304;18.294;2023-12-07T09:55:17;102634.66;;;-3.35;76.40
76311;BME280;65120;59.304;18.294;2023-12-07T09:57:45;102636.63;;;-3.31;76.66
76311;BME280;65120;59.304;18.294;2023-12-07T10:00:13;102631.72;;;-3.28;76.67
76311;BME280;65120;59.304;18.294;2023-12-07T10:02:41;102629.25;;;-3.26;76.90
76311;BME280;65120;59.304;18.294;2023-12-07T10:05:10;102628.66;;;-3.22;76.54
76311;BME280;65120;59.304;18.294;2023-12-07T10:07:40;102640.75;;;-3.19;76.95
76311;BME280;65120;59.304;18.294;2023-12-07T10:10:08;102620.19;;;-3.21;76.74
76311;BME280;65120;59.304;18.294;2023-12-07T10:12:44;102630.00;;;-3.14;77.48
76311;BME280;65120;59.304;18.294;2023-12-07T10:15:14;102625.06;;;-3.11;76.99
76311;BME280;65120;59.304;18.294;2023-12-07T10:17:46;102626.19;;;-3.07;76.89
76311;BME280;65120;59.304;18.294;2023-12-07T10:20:15;102630.63;;;-3.05;77.01
76311;BME280;65120;59.304;18.294;2023-12-07T10:22:42;102626.44;;;-3.03;77.03
76311;BME280;65120;59.304;18.294;2023-12-07T10:25:10;102625.06;;;-2.97;77.11
76311;BME280;65120;59.304;18.294;2023-12-07T10:27:40;102623.50;;;-2.95;77.29
76311;BME280;65120;59.304;18.294;2023-12-07T10:30:09;102621.13;;;-2.92;76.91
76311;BME280;65120;59.304;18.294;2023-12-07T10:32:37;102615.19;;;-2.91;77.43
76311;BME280;65120;59.304;18.294;2023-12-07T10:35:06;102623.06;;;-2.88;77.54
76311;BME280;65120;59.304;18.294;2023-12-07T10:37:34;102610.25;;;-2.88;77.32
76311;BME280;65120;59.304;18.294;2023-12-07T10:40:02;102616.56;;;-2.83;77.43
76311;BME280;65120;59.304;18.294;2023-12-07T10:42:33;102615.97;;;-2.79;77.51
76311;BME280;65120;59.304;18.294;2023-12-07T10:45:05;102609.06;;;-2.80;77.56
76311;BME280;65120;59.304;18.294;2023-12-07T10:47:36;102599.97;;;-2.75;77.41
76311;BME280;65120;59.304;18.294;2023-12-07T10:50:06;102599.28;;;-2.72;77.75
76311;BME280;65120;59.304;18.294;2023-12-07T10:52:37;102596.03;;;-2.70;77.86
76311;BME280;65120;59.304;18.294;2023-12-07T10:55:10;102595.34;;;-2.67;77.67
76311;BME280;65120;59.304;18.294;2023-12-07T10:57:38;102597.19;;;-2.65;77.89
76311;BME280;65120;59.304;18.294;2023-12-07T11:00:08;102587.03;;;-2.63;77.73
76311;BME280;65120;59.304;18.294;2023-12-07T11:02:36;102594.91;;;-2.60;78.23
76311;BME280;65120;59.304;18.294;2023-12-07T11:05:04;102586.50;;;-2.58;77.56
76311;BME280;65120;59.304;18.294;2023-12-07T11:07:40;102590.94;;;-2.55;77.85
76311;BME280;65120;59.304;18.294;2023-12-07T11:10:18;102585.19;;;-2.51;77.76
76311;BME280;65120;59.304;18.294;2023-12-07T11:12:50;102583.53;;;-2.50;77.63
76311;BME280;65120;59.304;18.294;2023-12-07T11:15:21;102571.66;;;-2.48;77.45
76311;BME280;65120;59.304;18.294;2023-12-07T11:17:50;102573.53;;;-2.46;78.01
76311;BME280;65120;59.304;18.294;2023-12-07T11:20:19;102571.16;;;-2.43;77.91
76311;BME280;65120;59.304;18.294;2023-12-07T11:22:47;102567.00;;;-2.41;77.32
76311;BME280;65120;59.304;18.294;2023-12-07T11:25:15;102571.44;;;-2.38;78.16
76311;BME280;65120;59.304;18.294;2023-12-07T11:27:44;102569.84;;;-2.36;78.25
76311;BME280;65120;59.304;18.294;2023-12-07T11:30:16;102571.78;;;-2.32;77.93
76311;BME280;65120;59.304;18.294;2023-12-07T11:32:45;102578.88;;;-2.28;78.78
76311;BME280;65120;59.304;18.294;2023-12-07T11:35:12;102573.13;;;-2.24;79.39
76311;BME280;65120;59.304;18.294;2023-12-07T11:38:02;102568.19;;;-2.21;79.07
76311;BME280;65120;59.304;18.294;2023-12-07T11:40:32;102573.59;;;-2.16;79.71
76311;BME280;65120;59.304;18.294;2023-12-07T11:43:00;102577.19;;;-2.13;79.95
76311;BME280;65120;59.304;18.294;2023-12-07T11:45:39;102574.91;;;-2.08;79.59
76311;BME280;65120;59.304;18.294;2023-12-07T11:48:13;102575.97;;;-2.04;80.37
76311;BME280;65120;59.304;18.294;2023-12-07T11:50:59;102575.34;;;-2.00;79.78
76311;BME280;65120;59.304;18.294;2023-12-07T11:53:27;102579.75;;;-1.98;80.21
76311;BME280;65120;59.304;18.294;2023-12-07T11:55:56;102577.47;;;-1.93;80.28
76311;BME280;65120;59.304;18.294;2023-12-07T11:58:24;102572.50;;;-1.90;79.80
76311;BME280;65120;59.304;18.294;2023-12-07T12:00:52;102569.31;;;-1.86;79.89
76311;BME280;65120;59.304;18.294;2023-12-07T12:03:21;102567.72;;;-1.84;79.25
76311;BME280;65120;59.304;18.294;2023-12-07T12:05:48;102562.06;;;-1.78;79.91
76311;BME280;65120;59.304;18.294;2023-12-07T12:08:16;102560.53;;;-1.75;79.67
76311;BME280;65120;59.304;18.294;2023-12-07T12:10:43;102559.94;;;-1.71;80.10
76311;BME280;65120;59.304;18.294;2023-12-07T12:13:10;102555.75;;;-1.69;79.77
76311;BME280;65120;59.304;18.294;2023-12-07T12:15:38;102549.91;;;-1.66;80.41
76311;BME280;65120;59.304;18.294;2023-12-07T12:18:06;102550.06;;;-1.63;80.01
76311;BME280;65120;59.304;18.294;2023-12-07T12:20:35;102554.59;;;-1.59;79.83
76311;BME280;65120;59.304;18.294;2023-12-07T12:23:02;102558.22;;;-1.55;79.82
76311;BME280;65120;59.304;18.294;2023-12-07T12:25:30;102550.50;;;-1.55;79.76
76311;BME280;65120;59.304;18.294;2023-12-07T12:27:58;102554.22;;;-1.50;79.65
76311;BME280;65120;59.304;18.294;2023-12-07T12:30:29;102547.50;;;-1.48;80.32
76311;BME280;65120;59.304;18.294;2023-12-07T12:32:56;102544.22;;;-1.46;79.82
76311;BME280;65120;59.304;18.294;2023-12-07T12:35:25;102537.47;;;-1.43;80.02
76311;BME280;65120;59.304;18.294;2023-12-07T12:37:53;102545.31;;;-1.40;79.31
76311;BME280;65120;59.304;18.294;2023-12-07T12:40:22;102532.44;;;-1.42;79.90
76311;BME280;65120;59.304;18.294;2023-12-07T12:42:50;102538.69;;;-1.37;80.18
76311;BME280;65120;59.304;18.294;2023-12-07T12:45:19;102538.88;;;-1.34;79.53